sensor_id;sensor_type;location;lat;lon;timestamp;P1;durP1;ratioP1;P2;durP2;ratioP2
21721;SDS011;11023;48.274;7.794;2023-07-29T00:01:33;0.80;;;0.50;;
21721;SDS011;11023;48.274;7.794;2023-07-29T00:04:00;0.80;;;0.50;;
21721;SDS011;11023;48.274;7.794;2023-07-29T00:06:26;1.75;;;0.65;;
21721;SDS011;11023;48.274;7.794;2023-07-29T00:08:52;0.82;;;0.52;;
21721;SDS011;11023;48.274;7.794;2023-07-29T00:11:18;0.90;;;0.50;;
21721;SDS011;11023;48.274;7.794;2023-07-29T00:13:43;0.77;;;0.43;;
21721;SDS011;11023;48.274;7.794;2023-07-29T00:16:09;0.60;;;0.50;;
21721;SDS011;11023;48.274;7.794;2023-07-29T00:18:35;0.50;;;0.45;;
21721;SDS011;11023;48.274;7.794;2023-07-29T00:21:01;0.85;;;0.55;;
21721;SDS011;11023;48.274;7.794;2023-07-29T00:23:27;0.57;;;0.50;;
21721;SDS011;11023;48.274;7.794;2023-07-29T00:25:52;0.47;;;0.40;;
21721;SDS011;11023;48.274;7.794;2023-07-29T00:28:18;0.75;;;0.60;;
21721;SDS011;11023;48.274;7.794;2023-07-29T00:30:44;0.40;;;0.40;;
21721;SDS011;11023;48.274;7.794;2023-07-29T00:33:10;0.80;;;0.57;;
21721;SDS011;11023;48.274;7.794;2023-07-29T00:35:35;1.10;;;0.40;;
21721;SDS011;11023;48.274;7.794;2023-07-29T00:38:02;0.75;;;0.45;;
21721;SDS011;11023;48.274;7.794;2023-07-29T00:40:28;0.43;;;0.40;;
21721;SDS011;11023;48.274;7.794;2023-07-29T00:42:55;0.47;;;0.47;;
21721;SDS011;11023;48.274;7.794;2023-07-29T00:45:20;1.02;;;0.30;;
21721;SDS011;11023;48.274;7.794;2023-07-29T00:47:47;1.00;;;0.50;;
21721;SDS011;11023;48.274;7.794;2023-07-29T00:50:13;0.32;;;0.32;;
21721;SDS011;11023;48.274;7.794;2023-07-29T00:52:39;2.05;;;0.50;;
21721;SDS011;11023;48.274;7.794;2023-07-29T00:55:06;0.43;;;0.32;;
21721;SDS011;11023;48.274;7.794;2023-07-29T00:57:32;0.30;;;0.30;;
21721;SDS011;11023;48.274;7.794;2023-07-29T00:59:59;0.70;;;0.57;;
21721;SDS011;11023;48.274;7.794;2023-07-29T01:02:25;1.10;;;0.50;;
21721;SDS011;11023;48.274;7.794;2023-07-29T01:04:55;0.75;;;0.40;;
21721;SDS011;11023;48.274;7.794;2023-07-29T01:07:47;0.45;;;0.30;;
21721;SDS011;11023;48.274;7.794;2023-07-29T01:18:15;0.52;;;0.47;;
21721;SDS011;11023;48.274;7.794;2023-07-29T01:20:47;0.55;;;0.43;;
21721;SDS011;11023;48.274;7.794;2023-07-29T01:23:14;0.20;;;0.20;;
21721;SDS011;11023;48.274;7.794;2023-07-29T01:25:42;0.80;;;0.47;;
21721;SDS011;11023;48.274;7.794;2023-07-29T01:28:08;1.25;;;0.57;;
21721;SDS011;11023;48.274;7.794;2023-07-29T01:30:37;0.40;;;0.40;;
21721;SDS011;11023;48.274;7.794;2023-07-29T01:33:14;0.65;;;0.40;;
21721;SDS011;11023;48.274;7.794;2023-07-29T01:35:47;0.40;;;0.30;;
21721;SDS011;11023;48.274;7.794;2023-07-29T01:38:18;0.65;;;0.32;;
21721;SDS011;11023;48.274;7.794;2023-07-29T01:40:46;0.38;;;0.38;;
21721;SDS011;11023;48.274;7.794;2023-07-29T01:43:14;0.65;;;0.40;;
21721;SDS011;11023;48.274;7.794;2023-07-29T01:45:41;0.50;;;0.50;;
21721;SDS011;11023;48.274;7.794;2023-07-29T01:48:07;0.40;;;0.40;;
21721;SDS011;11023;48.274;7.794;2023-07-29T01:50:33;1.45;;;0.70;;
21721;SDS011;11023;48.274;7.794;2023-07-29T01:52:59;0.88;;;0.40;;
21721;SDS011;11023;48.274;7.794;2023-07-29T01:55:25;0.70;;;0.35;;
21721;SDS011;11023;48.274;7.794;2023-07-29T01:57:51;0.95;;;0.55;;
21721;SDS011;11023;48.274;7.794;2023-07-29T02:00:20;0.55;;;0.43;;
21721;SDS011;11023;48.274;7.794;2023-07-29T02:02:47;0.68;;;0.47;;
21721;SDS011;11023;48.274;7.794;2023-07-29T02:05:13;0.30;;;0.30;;
21721;SDS011;11023;48.274;7.794;2023-07-29T02:07:39;0.55;;;0.40;;
21721;SDS011;11023;48.274;7.794;2023-07-29T02:10:04;0.55;;;0.50;;
21721;SDS011;11023;48.274;7.794;2023-07-29T02:12:32;0.57;;;0.57;;
21721;SDS011;11023;48.274;7.794;2023-07-29T02:14:59;0.43;;;0.43;;
21721;SDS011;11023;48.274;7.794;2023-07-29T02:17:25;0.50;;;0.40;;
21721;SDS011;11023;48.274;7.794;2023-07-29T02:19:51;1.52;;;0.55;;
21721;SDS011;11023;48.274;7.794;2023-07-29T02:22:17;0.60;;;0.60;;
21721;SDS011;11023;48.274;7.794;2023-07-29T02:24:44;1.30;;;0.45;;
21721;SDS011;11023;48.274;7.794;2023-07-29T02:27:10;0.50;;;0.50;;
21721;SDS011;11023;48.274;7.794;2023-07-29T02:29:36;3.78;;;0.60;;
21721;SDS011;11023;48.274;7.794;2023-07-29T02:32:02;0.63;;;0.50;;
21721;SDS011;11023;48.274;7.794;2023-07-29T02:34:28;1.95;;;0.50;;
21721;SDS011;11023;48.274;7.794;2023-07-29T02:36:55;0.40;;;0.40;;
21721;SDS011;11023;48.274;7.794;2023-07-29T02:39:20;0.63;;;0.50;;
21721;SDS011;11023;48.274;7.794;2023-07-29T02:41:48;1.23;;;0.50;;
21721;SDS011;11023;48.274;7.794;2023-07-29T02:44:14;1.63;;;0.40;;
21721;SDS011;11023;48.274;7.794;2023-07-29T02:46:40;1.13;;;0.40;;
21721;SDS011;11023;48.274;7.794;2023-07-29T02:49:06;0.70;;;0.50;;
21721;SDS011;11023;48.274;7.794;2023-07-29T02:51:32;0.73;;;0.52;;
21721;SDS011;11023;48.274;7.794;2023-07-29T02:53:59;3.42;;;0.60;;
21721;SDS011;11023;48.274;7.794;2023-07-29T02:56:25;0.70;;;0.57;;
21721;SDS011;11023;48.274;7.794;2023-07-29T02:58:50;0.50;;;0.40;;
21721;SDS011;11023;48.274;7.794;2023-07-29T03:01:19;0.85;;;0.30;;
21721;SDS011;11023;48.274;7.794;2023-07-29T03:03:44;0.88;;;0.63;;
21721;SDS011;11023;48.274;7.794;2023-07-29T03:06:11;0.90;;;0.70;;
21721;SDS011;11023;48.274;7.794;2023-07-29T03:08:38;2.58;;;0.70;;
21721;SDS011;11023;48.274;7.794;2023-07-29T03:11:08;0.45;;;0.40;;
21721;SDS011;11023;48.274;7.794;2023-07-29T03:13:36;1.23;;;0.90;;
21721;SDS011;11023;48.274;7.794;2023-07-29T03:16:05;1.17;;;0.90;;
21721;SDS011;11023;48.274;7.794;2023-07-29T03:21:01;1.15;;;0.70;;
21721;SDS011;11023;48.274;7.794;2023-07-29T03:23:28;0.80;;;0.70;;
21721;SDS011;11023;48.274;7.794;2023-07-29T03:25:55;0.90;;;0.57;;
21721;SDS011;11023;48.274;7.794;2023-07-29T03:28:24;1.88;;;0.90;;
21721;SDS011;11023;48.274;7.794;2023-07-29T03:30:53;2.30;;;0.95;;
21721;SDS011;11023;48.274;7.794;2023-07-29T03:33:19;5.97;;;0.73;;
21721;SDS011;11023;48.274;7.794;2023-07-29T03:35:44;1.20;;;1.00;;
21721;SDS011;11023;48.274;7.794;2023-07-29T03:38:11;1.85;;;1.00;;
21721;SDS011;11023;48.274;7.794;2023-07-29T03:40:38;1.13;;;0.63;;
21721;SDS011;11023;48.274;7.794;2023-07-29T03:43:04;0.68;;;0.68;;
21721;SDS011;11023;48.274;7.794;2023-07-29T03:45:30;1.77;;;0.85;;
21721;SDS011;11023;48.274;7.794;2023-07-29T03:47:58;0.77;;;0.60;;
21721;SDS011;11023;48.274;7.794;2023-07-29T03:50:23;1.48;;;0.70;;
21721;SDS011;11023;48.274;7.794;2023-07-29T03:52:49;0.85;;;0.65;;
21721;SDS011;11023;48.274;7.794;2023-07-29T03:55:15;2.72;;;0.68;;
21721;SDS011;11023;48.274;7.794;2023-07-29T03:57:41;1.50;;;0.80;;
21721;SDS011;11023;48.274;7.794;2023-07-29T04:00:08;0.85;;;0.60;;
21721;SDS011;11023;48.274;7.794;2023-07-29T04:02:34;1.13;;;0.85;;
21721;SDS011;11023;48.274;7.794;2023-07-29T04:05:04;0.60;;;0.60;;
21721;SDS011;11023;48.274;7.794;2023-07-29T04:07:31;0.90;;;0.73;;
21721;SDS011;11023;48.274;7.794;2023-07-29T04:09:57;1.42;;;0.90;;
21721;SDS011;11023;48.274;7.794;2023-07-29T04:12:24;1.67;;;0.70;;
21721;SDS011;11023;48.274;7.794;2023-07-29T04:14:49;1.23;;;0.47;;
21721;SDS011;11023;48.274;7.794;2023-07-29T04:17:15;0.43;;;0.43;;
21721;SDS011;11023;48.274;7.794;2023-07-29T04:19:41;1.45;;;0.90;;
21721;SDS011;11023;48.274;7.794;2023-07-29T04:22:08;0.57;;;0.47;;
21721;SDS011;11023;48.274;7.794;2023-07-29T04:24:33;0.90;;;0.80;;
21721;SDS011;11023;48.274;7.794;2023-07-29T04:26:59;2.20;;;0.57;;
21721;SDS011;11023;48.274;7.794;2023-07-29T04:29:25;0.93;;;0.45;;
21721;SDS011;11023;48.274;7.794;2023-07-29T04:31:50;2.35;;;0.57;;
21721;SDS011;11023;48.274;7.794;2023-07-29T04:34:19;0.95;;;0.73;;
21721;SDS011;11023;48.274;7.794;2023-07-29T04:36:46;1.67;;;0.73;;
21721;SDS011;11023;48.274;7.794;2023-07-29T04:39:13;0.68;;;0.60;;
21721;SDS011;11023;48.274;7.794;2023-07-29T04:41:39;1.08;;;0.60;;
21721;SDS011;11023;48.274;7.794;2023-07-29T04:44:05;0.77;;;0.60;;
21721;SDS011;11023;48.274;7.794;2023-07-29T04:46:31;0.93;;;0.68;;
21721;SDS011;11023;48.274;7.794;2023-07-29T04:48:58;0.70;;;0.68;;
21721;SDS011;11023;48.274;7.794;2023-07-29T04:51:23;0.82;;;0.73;;
21721;SDS011;11023;48.274;7.794;2023-07-29T04:53:51;0.55;;;0.52;;
21721;SDS011;11023;48.274;7.794;2023-07-29T04:56:17;0.60;;;0.50;;
21721;SDS011;11023;48.274;7.794;2023-07-29T04:58:42;0.52;;;0.38;;
21721;SDS011;11023;48.274;7.794;2023-07-29T05:01:08;0.70;;;0.60;;
21721;SDS011;11023;48.274;7.794;2023-07-29T05:03:34;1.00;;;0.60;;
21721;SDS011;11023;48.274;7.794;2023-07-29T05:06:01;1.02;;;0.57;;
21721;SDS011;11023;48.274;7.794;2023-07-29T05:08:27;0.80;;;0.52;;
21721;SDS011;11023;48.274;7.794;2023-07-29T05:10:53;1.27;;;0.65;;
21721;SDS011;11023;48.274;7.794;2023-07-29T05:13:20;0.60;;;0.60;;
21721;SDS011;11023;48.274;7.794;2023-07-29T05:15:49;0.77;;;0.70;;
21721;SDS011;11023;48.274;7.794;2023-07-29T05:18:15;0.75;;;0.73;;
21721;SDS011;11023;48.274;7.794;2023-07-29T05:20:42;2.20;;;0.85;;
21721;SDS011;11023;48.274;7.794;2023-07-29T05:23:08;1.20;;;0.80;;
21721;SDS011;11023;48.274;7.794;2023-07-29T05:25:35;4.32;;;0.80;;
21721;SDS011;11023;48.274;7.794;2023-07-29T05:28:01;0.57;;;0.55;;
21721;SDS011;11023;48.274;7.794;2023-07-29T05:30:28;1.52;;;1.15;;
21721;SDS011;11023;48.274;7.794;2023-07-29T05:32:56;2.15;;;1.35;;
21721;SDS011;11023;48.274;7.794;2023-07-29T05:35:22;1.23;;;0.90;;
21721;SDS011;11023;48.274;7.794;2023-07-29T05:37:49;0.82;;;0.73;;
21721;SDS011;11023;48.274;7.794;2023-07-29T05:40:15;3.50;;;0.70;;
21721;SDS011;11023;48.274;7.794;2023-07-29T05:42:41;2.83;;;1.20;;
21721;SDS011;11023;48.274;7.794;2023-07-29T05:45:08;0.98;;;0.60;;
21721;SDS011;11023;48.274;7.794;2023-07-29T05:47:34;1.95;;;1.10;;
21721;SDS011;11023;48.274;7.794;2023-07-29T05:50:00;1.65;;;0.85;;
21721;SDS011;11023;48.274;7.794;2023-07-29T05:52:29;1.02;;;0.63;;
21721;SDS011;11023;48.274;7.794;2023-07-29T05:54:55;1.17;;;0.85;;
21721;SDS011;11023;48.274;7.794;2023-07-29T05:57:21;2.83;;;0.80;;
21721;SDS011;11023;48.274;7.794;2023-07-29T05:59:47;0.73;;;0.70;;
21721;SDS011;11023;48.274;7.794;2023-07-29T06:02:13;2.15;;;1.00;;
21721;SDS011;11023;48.274;7.794;2023-07-29T06:04:39;1.15;;;0.77;;
21721;SDS011;11023;48.274;7.794;2023-07-29T06:07:05;1.35;;;0.77;;
21721;SDS011;11023;48.274;7.794;2023-07-29T06:09:33;1.33;;;0.90;;
21721;SDS011;11023;48.274;7.794;2023-07-29T06:11:59;1.60;;;0.90;;
21721;SDS011;11023;48.274;7.794;2023-07-29T06:14:27;0.80;;;0.80;;
21721;SDS011;11023;48.274;7.794;2023-07-29T06:16:52;1.65;;;1.23;;
21721;SDS011;11023;48.274;7.794;2023-07-29T06:19:19;1.33;;;0.80;;
21721;SDS011;11023;48.274;7.794;2023-07-29T06:21:45;1.17;;;0.80;;
21721;SDS011;11023;48.274;7.794;2023-07-29T06:24:11;1.40;;;1.10;;
21721;SDS011;11023;48.274;7.794;2023-07-29T06:26:37;2.22;;;1.05;;
21721;SDS011;11023;48.274;7.794;2023-07-29T06:29:03;3.03;;;0.80;;
21721;SDS011;11023;48.274;7.794;2023-07-29T06:31:29;3.65;;;1.15;;
21721;SDS011;11023;48.274;7.794;2023-07-29T06:33:55;1.70;;;1.20;;
21721;SDS011;11023;48.274;7.794;2023-07-29T06:36:21;1.92;;;1.20;;
21721;SDS011;11023;48.274;7.794;2023-07-29T06:38:46;3.40;;;1.38;;
21721;SDS011;11023;48.274;7.794;2023-07-29T06:41:12;1.38;;;0.90;;
21721;SDS011;11023;48.274;7.794;2023-07-29T06:43:40;2.75;;;1.10;;
21721;SDS011;11023;48.274;7.794;2023-07-29T06:46:05;1.40;;;0.98;;
21721;SDS011;11023;48.274;7.794;2023-07-29T06:48:31;1.10;;;1.00;;
21721;SDS011;11023;48.274;7.794;2023-07-29T06:50:57;1.65;;;1.00;;
21721;SDS011;11023;48.274;7.794;2023-07-29T06:53:26;1.83;;;1.20;;
21721;SDS011;11023;48.274;7.794;2023-07-29T06:55:52;1.00;;;0.88;;
21721;SDS011;11023;48.274;7.794;2023-07-29T06:58:21;4.38;;;1.10;;
21721;SDS011;11023;48.274;7.794;2023-07-29T07:00:47;2.60;;;1.20;;
21721;SDS011;11023;48.274;7.794;2023-07-29T07:03:14;1.70;;;0.98;;
21721;SDS011;11023;48.274;7.794;2023-07-29T07:05:40;1.35;;;1.02;;
21721;SDS011;11023;48.274;7.794;2023-07-29T07:08:09;1.65;;;1.15;;
21721;SDS011;11023;48.274;7.794;2023-07-29T07:10:35;1.33;;;0.93;;
21721;SDS011;11023;48.274;7.794;2023-07-29T07:13:00;2.25;;;1.23;;
21721;SDS011;11023;48.274;7.794;2023-07-29T07:15:28;1.17;;;0.90;;
21721;SDS011;11023;48.274;7.794;2023-07-29T07:17:53;1.02;;;0.65;;
21721;SDS011;11023;48.274;7.794;2023-07-29T07:20:19;1.42;;;0.85;;
21721;SDS011;11023;48.274;7.794;2023-07-29T07:22:45;1.20;;;0.88;;
21721;SDS011;11023;48.274;7.794;2023-07-29T07:25:10;1.58;;;1.10;;
21721;SDS011;11023;48.274;7.794;2023-07-29T07:27:36;1.63;;;1.00;;
21721;SDS011;11023;48.274;7.794;2023-07-29T07:30:03;1.13;;;0.88;;
21721;SDS011;11023;48.274;7.794;2023-07-29T07:32:29;1.45;;;0.95;;
21721;SDS011;11023;48.274;7.794;2023-07-29T07:34:55;2.15;;;1.10;;
21721;SDS011;11023;48.274;7.794;2023-07-29T07:37:21;0.95;;;0.88;;
21721;SDS011;11023;48.274;7.794;2023-07-29T07:39:46;1.23;;;0.75;;
21721;SDS011;11023;48.274;7.794;2023-07-29T07:42:12;1.38;;;1.17;;
21721;SDS011;11023;48.274;7.794;2023-07-29T07:44:38;1.73;;;0.95;;
21721;SDS011;11023;48.274;7.794;2023-07-29T07:47:03;1.95;;;1.25;;
21721;SDS011;11023;48.274;7.794;2023-07-29T07:49:29;2.15;;;0.95;;
21721;SDS011;11023;48.274;7.794;2023-07-29T07:51:55;1.00;;;0.85;;
21721;SDS011;11023;48.274;7.794;2023-07-29T07:54:20;3.60;;;1.20;;
21721;SDS011;11023;48.274;7.794;2023-07-29T07:56:46;1.08;;;0.80;;
21721;SDS011;11023;48.274;7.794;2023-07-29T07:59:11;1.92;;;0.98;;
21721;SDS011;11023;48.274;7.794;2023-07-29T08:01:38;1.65;;;0.90;;
21721;SDS011;11023;48.274;7.794;2023-07-29T08:04:04;0.93;;;0.80;;
21721;SDS011;11023;48.274;7.794;2023-07-29T08:06:31;1.55;;;0.90;;
21721;SDS011;11023;48.274;7.794;2023-07-29T08:08:57;1.10;;;0.88;;
21721;SDS011;11023;48.274;7.794;2023-07-29T08:11:23;0.60;;;0.60;;
21721;SDS011;11023;48.274;7.794;2023-07-29T08:13:48;1.67;;;0.80;;
21721;SDS011;11023;48.274;7.794;2023-07-29T08:16:14;1.13;;;1.00;;
21721;SDS011;11023;48.274;7.794;2023-07-29T08:18:40;0.85;;;0.85;;
21721;SDS011;11023;48.274;7.794;2023-07-29T08:21:05;1.25;;;0.80;;
21721;SDS011;11023;48.274;7.794;2023-07-29T08:23:33;1.00;;;0.82;;
21721;SDS011;11023;48.274;7.794;2023-07-29T08:26:00;1.23;;;0.80;;
21721;SDS011;11023;48.274;7.794;2023-07-29T08:28:36;1.15;;;1.00;;
21721;SDS011;11023;48.274;7.794;2023-07-29T08:31:03;0.98;;;0.73;;
21721;SDS011;11023;48.274;7.794;2023-07-29T08:33:30;1.67;;;1.00;;
21721;SDS011;11023;48.274;7.794;2023-07-29T08:35:58;1.20;;;0.80;;
21721;SDS011;11023;48.274;7.794;2023-07-29T08:38:24;1.63;;;1.17;;
21721;SDS011;11023;48.274;7.794;2023-07-29T08:41:14;1.05;;;0.80;;
21721;SDS011;11023;48.274;7.794;2023-07-29T08:44:30;1.88;;;0.90;;
21721;SDS011;11023;48.274;7.794;2023-07-29T08:46:34;2.90;;;0.70;;
21721;SDS011;11023;48.274;7.794;2023-07-29T08:49:00;0.90;;;0.90;;
21721;SDS011;11023;48.274;7.794;2023-07-29T08:51:27;3.28;;;0.95;;
21721;SDS011;11023;48.274;7.794;2023-07-29T08:53:54;1.13;;;0.80;;
21721;SDS011;11023;48.274;7.794;2023-07-29T08:56:20;1.40;;;1.20;;
21721;SDS011;11023;48.274;7.794;2023-07-29T08:58:46;1.33;;;0.90;;
21721;SDS011;11023;48.274;7.794;2023-07-29T09:01:13;0.88;;;0.75;;
21721;SDS011;11023;48.274;7.794;2023-07-29T09:03:40;1.55;;;0.98;;
21721;SDS011;11023;48.274;7.794;2023-07-29T09:06:06;1.23;;;1.02;;
21721;SDS011;11023;48.274;7.794;2023-07-29T09:08:33;0.93;;;0.70;;
21721;SDS011;11023;48.274;7.794;2023-07-29T09:10:59;1.38;;;0.93;;
21721;SDS011;11023;48.274;7.794;2023-07-29T09:13:26;3.05;;;1.05;;
21721;SDS011;11023;48.274;7.794;2023-07-29T09:15:55;1.35;;;1.00;;
21721;SDS011;11023;48.274;7.794;2023-07-29T09:18:22;0.93;;;0.80;;
21721;SDS011;11023;48.274;7.794;2023-07-29T09:20:50;1.27;;;0.90;;
21721;SDS011;11023;48.274;7.794;2023-07-29T09:23:16;1.40;;;1.30;;
21721;SDS011;11023;48.274;7.794;2023-07-29T09:25:42;3.00;;;1.05;;
21721;SDS011;11023;48.274;7.794;2023-07-29T09:28:11;1.50;;;0.93;;
21721;SDS011;11023;48.274;7.794;2023-07-29T09:30:38;1.27;;;0.80;;
21721;SDS011;11023;48.274;7.794;2023-07-29T09:33:05;3.65;;;0.82;;
21721;SDS011;11023;48.274;7.794;2023-07-29T09:35:32;1.42;;;1.13;;
21721;SDS011;11023;48.274;7.794;2023-07-29T09:37:59;1.00;;;0.90;;
21721;SDS011;11023;48.274;7.794;2023-07-29T09:40:24;1.63;;;0.80;;
21721;SDS011;11023;48.274;7.794;2023-07-29T09:42:51;1.08;;;0.80;;
21721;SDS011;11023;48.274;7.794;2023-07-29T09:45:23;2.00;;;1.00;;
21721;SDS011;11023;48.274;7.794;2023-07-29T09:47:50;0.98;;;0.75;;
21721;SDS011;11023;48.274;7.794;2023-07-29T09:50:16;1.10;;;0.90;;
21721;SDS011;11023;48.274;7.794;2023-07-29T09:52:42;1.20;;;1.00;;
21721;SDS011;11023;48.274;7.794;2023-07-29T09:55:17;0.90;;;0.90;;
21721;SDS011;11023;48.274;7.794;2023-07-29T09:57:44;1.33;;;0.82;;
21721;SDS011;11023;48.274;7.794;2023-07-29T10:00:13;2.20;;;0.95;;
21721;SDS011;11023;48.274;7.794;2023-07-29T10:02:39;1.13;;;1.00;;
21721;SDS011;11023;48.274;7.794;2023-07-29T10:05:07;0.80;;;0.80;;
21721;SDS011;11023;48.274;7.794;2023-07-29T10:07:34;1.05;;;0.95;;
21721;SDS011;11023;48.274;7.794;2023-07-29T10:10:02;2.03;;;1.20;;
21721;SDS011;11023;48.274;7.794;2023-07-29T10:12:33;1.40;;;0.82;;
21721;SDS011;11023;48.274;7.794;2023-07-29T10:15:02;1.20;;;0.80;;
21721;SDS011;11023;48.274;7.794;2023-07-29T10:17:30;0.77;;;0.70;;
21721;SDS011;11023;48.274;7.794;2023-07-29T10:19:58;1.65;;;1.00;;
21721;SDS011;11023;48.274;7.794;2023-07-29T10:22:24;1.35;;;0.85;;
21721;SDS011;11023;48.274;7.794;2023-07-29T10:24:56;1.13;;;0.70;;
21721;SDS011;11023;48.274;7.794;2023-07-29T10:27:27;0.77;;;0.73;;
21721;SDS011;11023;48.274;7.794;2023-07-29T10:29:54;2.08;;;1.00;;
21721;SDS011;11023;48.274;7.794;2023-07-29T10:32:22;2.97;;;1.10;;
21721;SDS011;11023;48.274;7.794;2023-07-29T10:34:51;1.20;;;0.80;;
21721;SDS011;11023;48.274;7.794;2023-07-29T10:37:17;1.83;;;1.02;;
21721;SDS011;11023;48.274;7.794;2023-07-29T10:39:51;0.80;;;0.80;;
21721;SDS011;11023;48.274;7.794;2023-07-29T10:42:19;2.03;;;1.05;;
21721;SDS011;11023;48.274;7.794;2023-07-29T10:47:20;2.47;;;0.68;;
21721;SDS011;11023;48.274;7.794;2023-07-29T10:49:52;0.68;;;0.57;;
21721;SDS011;11023;48.274;7.794;2023-07-29T10:54:56;1.60;;;0.93;;
21721;SDS011;11023;48.274;7.794;2023-07-29T10:57:32;1.05;;;0.88;;
21721;SDS011;11023;48.274;7.794;2023-07-29T11:00:03;0.77;;;0.70;;
21721;SDS011;11023;48.274;7.794;2023-07-29T11:04:57;1.58;;;0.80;;
21721;SDS011;11023;48.274;7.794;2023-07-29T11:07:25;0.90;;;0.70;;
21721;SDS011;11023;48.274;7.794;2023-07-29T11:09:58;1.27;;;0.80;;
21721;SDS011;11023;48.274;7.794;2023-07-29T11:17:36;2.05;;;1.02;;
21721;SDS011;11023;48.274;7.794;2023-07-29T11:20:09;1.67;;;0.98;;
21721;SDS011;11023;48.274;7.794;2023-07-29T11:22:35;1.50;;;1.00;;
21721;SDS011;11023;48.274;7.794;2023-07-29T11:25:02;1.38;;;0.93;;
21721;SDS011;11023;48.274;7.794;2023-07-29T11:27:28;0.98;;;0.68;;
21721;SDS011;11023;48.274;7.794;2023-07-29T11:29:57;1.55;;;0.80;;
21721;SDS011;11023;48.274;7.794;2023-07-29T11:32:24;0.90;;;0.77;;
21721;SDS011;11023;48.274;7.794;2023-07-29T11:34:50;1.27;;;0.90;;
21721;SDS011;11023;48.274;7.794;2023-07-29T11:37:16;0.77;;;0.75;;
21721;SDS011;11023;48.274;7.794;2023-07-29T11:39:42;1.50;;;0.85;;
21721;SDS011;11023;48.274;7.794;2023-07-29T11:42:13;1.13;;;0.70;;
21721;SDS011;11023;48.274;7.794;2023-07-29T11:44:41;1.10;;;0.73;;
21721;SDS011;11023;48.274;7.794;2023-07-29T11:47:10;1.73;;;0.70;;
21721;SDS011;11023;48.274;7.794;2023-07-29T11:49:38;1.95;;;1.08;;
21721;SDS011;11023;48.274;7.794;2023-07-29T11:52:08;0.80;;;0.80;;
21721;SDS011;11023;48.274;7.794;2023-07-29T11:54:36;1.02;;;0.73;;
21721;SDS011;11023;48.274;7.794;2023-07-29T11:57:07;0.50;;;0.50;;
21721;SDS011;11023;48.274;7.794;2023-07-29T11:59:34;1.10;;;0.60;;
21721;SDS011;11023;48.274;7.794;2023-07-29T12:02:00;0.80;;;0.75;;
21721;SDS011;11023;48.274;7.794;2023-07-29T12:04:28;2.00;;;0.98;;
21721;SDS011;11023;48.274;7.794;2023-07-29T12:06:55;1.33;;;0.98;;
21721;SDS011;11023;48.274;7.794;2023-07-29T12:09:21;1.05;;;0.90;;
21721;SDS011;11023;48.274;7.794;2023-07-29T12:11:47;0.88;;;0.60;;
21721;SDS011;11023;48.274;7.794;2023-07-29T12:14:12;1.30;;;0.75;;
21721;SDS011;11023;48.274;7.794;2023-07-29T12:16:44;1.02;;;0.70;;
21721;SDS011;11023;48.274;7.794;2023-07-29T12:19:13;1.33;;;0.90;;
21721;SDS011;11023;48.274;7.794;2023-07-29T12:21:42;0.70;;;0.70;;
21721;SDS011;11023;48.274;7.794;2023-07-29T12:24:08;0.70;;;0.70;;
21721;SDS011;11023;48.274;7.794;2023-07-29T12:26:35;1.17;;;0.70;;
21721;SDS011;11023;48.274;7.794;2023-07-29T12:29:14;1.35;;;0.65;;
21721;SDS011;11023;48.274;7.794;2023-07-29T12:31:40;0.95;;;0.80;;
21721;SDS011;11023;48.274;7.794;2023-07-29T12:34:06;1.90;;;0.90;;
21721;SDS011;11023;48.274;7.794;2023-07-29T12:36:42;2.05;;;0.60;;
21721;SDS011;11023;48.274;7.794;2023-07-29T12:39:28;1.25;;;0.80;;
21721;SDS011;11023;48.274;7.794;2023-07-29T12:41:58;1.13;;;0.68;;
21721;SDS011;11023;48.274;7.794;2023-07-29T12:44:27;0.80;;;0.80;;
21721;SDS011;11023;48.274;7.794;2023-07-29T12:46:55;1.00;;;0.85;;
21721;SDS011;11023;48.274;7.794;2023-07-29T12:49:21;2.33;;;1.15;;
21721;SDS011;11023;48.274;7.794;2023-07-29T12:51:47;2.67;;;0.73;;
21721;SDS011;11023;48.274;7.794;2023-07-29T12:54:13;0.73;;;0.73;;
21721;SDS011;11023;48.274;7.794;2023-07-29T12:56:39;0.80;;;0.70;;
21721;SDS011;11023;48.274;7.794;2023-07-29T12:59:05;1.02;;;0.88;;
21721;SDS011;11023;48.274;7.794;2023-07-29T13:01:31;0.85;;;0.68;;
21721;SDS011;11023;48.274;7.794;2023-07-29T13:03:56;1.70;;;1.00;;
21721;SDS011;11023;48.274;7.794;2023-07-29T13:06:22;1.00;;;0.80;;
21721;SDS011;11023;48.274;7.794;2023-07-29T13:08:48;0.70;;;0.60;;
21721;SDS011;11023;48.274;7.794;2023-07-29T13:11:14;1.40;;;1.00;;
21721;SDS011;11023;48.274;7.794;2023-07-29T13:13:41;0.95;;;0.85;;
21721;SDS011;11023;48.274;7.794;2023-07-29T13:16:07;1.63;;;0.93;;
21721;SDS011;11023;48.274;7.794;2023-07-29T13:18:33;1.17;;;1.05;;
21721;SDS011;11023;48.274;7.794;2023-07-29T13:20:59;1.33;;;1.00;;
21721;SDS011;11023;48.274;7.794;2023-07-29T13:23:25;0.90;;;0.80;;
21721;SDS011;11023;48.274;7.794;2023-07-29T13:25:51;1.08;;;0.75;;
21721;SDS011;11023;48.274;7.794;2023-07-29T13:28:17;0.90;;;0.75;;
21721;SDS011;11023;48.274;7.794;2023-07-29T13:30:44;0.75;;;0.60;;
21721;SDS011;11023;48.274;7.794;2023-07-29T13:33:09;1.10;;;0.90;;
21721;SDS011;11023;48.274;7.794;2023-07-29T13:35:35;0.93;;;0.77;;
21721;SDS011;11023;48.274;7.794;2023-07-29T13:38:01;1.30;;;1.10;;
21721;SDS011;11023;48.274;7.794;2023-07-29T13:40:27;1.73;;;0.90;;
21721;SDS011;11023;48.274;7.794;2023-07-29T13:42:53;1.50;;;0.93;;
21721;SDS011;11023;48.274;7.794;2023-07-29T13:45:19;1.15;;;1.00;;
21721;SDS011;11023;48.274;7.794;2023-07-29T13:47:44;1.10;;;1.00;;
21721;SDS011;11023;48.274;7.794;2023-07-29T13:50:10;1.08;;;0.77;;
21721;SDS011;11023;48.274;7.794;2023-07-29T13:52:37;1.30;;;0.85;;
21721;SDS011;11023;48.274;7.794;2023-07-29T13:55:03;1.38;;;0.90;;
21721;SDS011;11023;48.274;7.794;2023-07-29T13:57:29;0.90;;;0.80;;
21721;SDS011;11023;48.274;7.794;2023-07-29T13:59:55;1.00;;;0.88;;
21721;SDS011;11023;48.274;7.794;2023-07-29T14:02:21;1.20;;;0.80;;
21721;SDS011;11023;48.274;7.794;2023-07-29T14:04:47;2.35;;;1.15;;
21721;SDS011;11023;48.274;7.794;2023-07-29T14:07:12;1.85;;;1.10;;
21721;SDS011;11023;48.274;7.794;2023-07-29T14:09:38;1.08;;;0.90;;
21721;SDS011;11023;48.274;7.794;2023-07-29T14:12:04;0.95;;;0.90;;
21721;SDS011;11023;48.274;7.794;2023-07-29T14:14:30;1.58;;;1.08;;
21721;SDS011;11023;48.274;7.794;2023-07-29T14:16:56;1.38;;;1.10;;
21721;SDS011;11023;48.274;7.794;2023-07-29T14:19:22;0.73;;;0.60;;
21721;SDS011;11023;48.274;7.794;2023-07-29T14:21:48;1.20;;;0.85;;
21721;SDS011;11023;48.274;7.794;2023-07-29T14:24:14;1.15;;;1.02;;
21721;SDS011;11023;48.274;7.794;2023-07-29T14:26:40;1.08;;;0.80;;
21721;SDS011;11023;48.274;7.794;2023-07-29T14:29:06;1.05;;;0.90;;
21721;SDS011;11023;48.274;7.794;2023-07-29T14:31:32;1.52;;;1.00;;
21721;SDS011;11023;48.274;7.794;2023-07-29T14:33:58;1.05;;;0.95;;
21721;SDS011;11023;48.274;7.794;2023-07-29T14:36:24;1.60;;;1.08;;
21721;SDS011;11023;48.274;7.794;2023-07-29T14:38:51;1.08;;;0.95;;
21721;SDS011;11023;48.274;7.794;2023-07-29T14:41:16;1.20;;;0.68;;
21721;SDS011;11023;48.274;7.794;2023-07-29T14:43:42;2.88;;;1.05;;
21721;SDS011;11023;48.274;7.794;2023-07-29T14:46:08;1.38;;;1.00;;
21721;SDS011;11023;48.274;7.794;2023-07-29T14:48:34;0.80;;;0.80;;
21721;SDS011;11023;48.274;7.794;2023-07-29T14:51:00;0.77;;;0.60;;
21721;SDS011;11023;48.274;7.794;2023-07-29T14:53:26;0.95;;;0.82;;
21721;SDS011;11023;48.274;7.794;2023-07-29T14:55:51;4.45;;;1.10;;
21721;SDS011;11023;48.274;7.794;2023-07-29T14:58:17;1.05;;;0.80;;
21721;SDS011;11023;48.274;7.794;2023-07-29T15:00:43;1.00;;;0.80;;
21721;SDS011;11023;48.274;7.794;2023-07-29T15:03:09;1.05;;;0.88;;
21721;SDS011;11023;48.274;7.794;2023-07-29T15:05:35;0.60;;;0.60;;
21721;SDS011;11023;48.274;7.794;2023-07-29T15:08:01;1.27;;;0.93;;
21721;SDS011;11023;48.274;7.794;2023-07-29T15:10:27;2.70;;;1.02;;